Time;durP1;ratioP1;P1;durP2;ratioP2;P2;SDS_P1;SDS_P2;PMS_P1;PMS_P2;Temp;Humidity;BMP_temperature;BMP_pressure;BME280_temperature;BME280_humidity;BME280_pressure;Samples;Min_cycle;Max_cycle;Signal;HPM_P1;HPM_P2
2022/06/17 00:02:07;;;;;;;4.15;1.92;;;14.60;99.90;;;;;;5047480;28;20073;-81
2022/06/17 00:04:33;;;;;;;3.13;1.85;;;14.60;99.90;;;;;;5031433;28;20151;-82
2022/06/17 00:07:03;;;;;;;3.20;1.95;;;14.60;99.90;;;;;;5023377;28;20060;-83
2022/06/17 00:09:31;;;;;;;3.40;2.10;;;14.60;99.90;;;;;;5033098;28;20217;-83
2022/06/17 00:11:57;;;;;;;2.67;1.85;;;14.50;99.90;;;;;;5020363;28;20051;-83
2022/06/17 00:14:31;;;;;;;2.97;1.88;;;14.50;99.90;;;;;;5042235;28;20394;-83
2022/06/17 00:16:58;;;;;;;2.67;2.08;;;14.50;99.90;;;;;;5025659;28;20033;-83
2022/06/17 00:19:24;;;;;;;2.97;2.20;;;14.50;99.90;;;;;;5034054;28;20033;-83
2022/06/17 00:21:52;;;;;;;2.35;1.77;;;14.40;99.90;;;;;;5039817;28;20108;-83
2022/06/17 00:24:27;;;;;;;2.50;1.75;;;14.50;99.90;;;;;;5035664;28;20060;-83
2022/06/17 00:26:54;;;;;;;2.33;1.60;;;14.50;99.90;;;;;;5022738;28;20037;-81
2022/06/17 00:29:22;;;;;;;2.90;1.95;;;14.40;99.90;;;;;;5036078;28;20122;-84
2022/06/17 00:31:48;;;;;;;4.10;2.53;;;14.40;99.90;;;;;;5041537;28;20029;-83
2022/06/17 00:34:14;;;;;;;2.72;1.50;;;14.30;99.90;;;;;;5035902;28;20474;-82
2022/06/17 00:36:41;;;;;;;2.95;1.73;;;14.30;99.90;;;;;;5035217;28;20052;-83
2022/06/17 00:39:18;;;;;;;5.03;2.10;;;14.30;99.90;;;;;;5025753;28;20029;-83
2022/06/17 00:41:47;;;;;;;3.55;2.05;;;14.30;99.90;;;;;;5038100;28;20557;-84
2022/06/17 00:44:31;;;;;;;2.30;1.42;;;14.20;99.90;;;;;;5041963;28;20037;-82
2022/06/17 00:47:07;;;;;;;2.50;2.00;;;14.20;99.90;;;;;;5019318;28;20111;-83
2022/06/17 00:49:55;;;;;;;2.83;1.95;;;14.20;99.90;;;;;;5032163;28;20021;-83
2022/06/17 00:52:39;;;;;;;2.75;1.65;;;14.10;99.90;;;;;;5034411;28;20095;-83
2022/06/17 00:55:19;;;;;;;2.30;1.58;;;14.10;99.90;;;;;;5040316;28;20039;-83
2022/06/17 00:57:45;;;;;;;3.40;2.28;;;14.10;99.90;;;;;;5023394;28;20029;-82
2022/06/17 01:00:14;;;;;;;3.63;1.95;;;14.10;99.90;;;;;;5032003;28;20064;-83
2022/06/17 01:02:46;;;;;;;3.35;1.75;;;14.10;99.90;;;;;;5033551;28;20695;-83
2022/06/17 01:05:13;;;;;;;2.65;2.17;;;14.00;99.90;;;;;;5019222;28;20063;-83
2022/06/17 01:07:53;;;;;;;3.90;2.67;;;14.00;99.90;;;;;;5029902;28;20052;-83
2022/06/17 01:10:19;;;;;;;;;;;14.00;99.90;;;;;;5021070;28;20026;-82
2022/06/17 01:12:54;;;;;;;3.63;2.08;;;14.00;99.90;;;;;;5037067;28;20412;-82
2022/06/17 01:15:22;;;;;;;2.72;1.83;;;14.10;99.90;;;;;;5024126;28;20021;-82
2022/06/17 01:17:53;;;;;;;4.55;2.85;;;14.00;99.90;;;;;;5020205;28;20036;-82
2022/06/17 01:20:21;;;;;;;3.05;2.75;;;14.10;99.90;;;;;;5047617;28;20053;-83
2022/06/17 01:22:56;;;;;;;3.10;2.70;;;14.10;99.90;;;;;;5048911;28;20036;-83
2022/06/17 01:25:48;;;;;;;3.60;2.78;;;14.00;99.90;;;;;;5040452;28;20473;-83
2022/06/17 01:28:16;;;;;;;2.70;1.83;;;14.00;99.90;;;;;;5025299;28;20041;-83
2022/06/17 01:30:49;;;;;;;3.38;2.30;;;14.10;99.90;;;;;;5036564;28;20029;-83
2022/06/17 01:33:22;;;;;;;3.50;2.15;;;14.10;99.90;;;;;;5039405;28;20029;-82
2022/06/17 01:35:57;;;;;;;3.15;1.95;;;14.20;99.90;;;;;;5024474;28;20038;-82
2022/06/17 01:38:23;;;;;;;3.33;2.13;;;14.20;99.90;;;;;;5037619;28;20362;-83
2022/06/17 01:40:52;;;;;;;3.42;2.20;;;14.30;99.90;;;;;;5039117;28;20041;-82
2022/06/17 01:43:20;;;;;;;3.05;2.75;;;14.20;99.90;;;;;;5032793;28;20032;-83
2022/06/17 01:45:54;;;;;;;2.72;2.22;;;14.20;99.90;;;;;;5023644;28;20076;-83
2022/06/17 01:48:23;;;;;;;2.72;2.00;;;14.20;99.90;;;;;;5037004;28;20060;-83
2022/06/17 01:50:51;;;;;;;4.25;2.20;;;14.10;99.90;;;;;;5015653;28;20021;-83
2022/06/17 01:53:21;;;;;;;3.35;2.65;;;14.20;99.90;;;;;;5035965;28;20379;-82
2022/06/17 01:55:50;;;;;;;2.58;1.80;;;14.20;99.90;;;;;;5035346;28;20021;-82
2022/06/17 01:58:31;;;;;;;2.40;2.13;;;14.20;99.90;;;;;;5024372;28;20041;-81
2022/06/17 02:00:58;;;;;;;2.58;2.28;;;14.20;99.90;;;;;;5023886;28;20298;-83
2022/06/17 02:03:28;;;;;;;2.67;2.38;;;14.30;99.90;;;;;;5017478;28;20083;-83
2022/06/17 02:06:14;;;;;;;2.88;2.17;;;14.20;99.90;;;;;;5032819;28;20056;-83
2022/06/17 02:08:40;;;;;;;2.95;2.17;;;14.20;99.90;;;;;;5030547;28;20083;-82
2022/06/17 02:11:07;;;;;;;3.03;2.28;;;14.10;99.90;;;;;;5037415;28;20696;-82
2022/06/17 02:13:36;;;;;;;2.10;1.90;;;14.20;99.90;;;;;;5018733;28;20033;-83
2022/06/17 02:16:14;;;;;;;3.42;2.10;;;14.20;99.90;;;;;;5039930;28;20030;-82
2022/06/17 02:19:10;;;;;;;4.13;2.88;;;14.20;99.90;;;;;;5028146;28;20099;-82
2022/06/17 02:21:48;;;;;;;3.45;2.50;;;14.10;99.90;;;;;;5037552;28;20112;-82
2022/06/17 02:24:14;;;;;;;5.38;2.95;;;14.10;99.90;;;;;;5038439;28;20033;-83
2022/06/17 02:26:43;;;;;;;3.35;2.30;;;14.10;99.90;;;;;;5021702;28;20040;-81
2022/06/17 02:29:11;;;;;;;3.00;2.45;;;14.10;99.90;;;;;;5017817;28;20037;-83
2022/06/17 02:31:40;;;;;;;3.45;2.00;;;14.10;99.90;;;;;;5035398;28;20037;-82
2022/06/17 02:34:07;;;;;;;4.00;2.42;;;14.10;99.90;;;;;;5015872;28;20387;-83
2022/06/17 02:36:55;;;;;;;3.00;2.55;;;14.10;99.90;;;;;;5032688;28;20060;-82
2022/06/17 02:39:21;;;;;;;5.57;2.67;;;14.00;99.90;;;;;;5044215;28;20029;-83
2022/06/17 02:41:48;;;;;;;4.15;2.55;;;14.00;99.90;;;;;;5021647;28;20469;-82
2022/06/17 02:44:22;;;;;;;3.30;2.53;;;14.00;99.90;;;;;;5037760;28;20032;-82
2022/06/17 02:46:51;;;;;;;3.22;2.78;;;14.00;99.90;;;;;;5032457;28;20484;-83
2022/06/17 02:49:25;;;;;;;2.90;2.60;;;14.00;99.90;;;;;;5028531;28;20032;-83
2022/06/17 02:51:51;;;;;;;3.05;2.38;;;14.00;99.90;;;;;;5034586;28;20325;-82
2022/06/17 02:54:35;;;;;;;3.85;2.53;;;14.00;99.90;;;;;;5020696;28;20481;-82
2022/06/17 02:57:02;;;;;;;4.88;2.33;;;14.00;99.90;;;;;;5021455;28;20538;-82
2022/06/17 02:59:48;;;;;;;3.78;2.30;;;14.00;99.90;;;;;;5031700;28;20030;-82
2022/06/17 03:02:57;;;;;;;3.92;2.15;;;14.00;99.90;;;;;;5032093;28;20480;-82
2022/06/17 03:05:32;;;;;;;2.58;2.00;;;14.00;99.90;;;;;;4987005;28;20084;-82
2022/06/17 03:07:59;;;;;;;2.75;2.22;;;13.90;99.90;;;;;;4979892;28;20080;-82
2022/06/17 03:10:35;;;;;;;3.35;2.90;;;14.00;99.90;;;;;;4983300;28;20032;-82
2022/06/17 03:13:15;;;;;;;;;;;14.00;99.90;;;;;;5019286;28;20065;-82
2022/06/17 03:15:43;;;;;;;2.15;1.83;;;14.00;99.90;;;;;;5019047;28;19909;-82
2022/06/17 03:18:10;;;;;;;2.80;2.20;;;13.90;99.90;;;;;;4980507;28;20034;-82
2022/06/17 03:20:38;;;;;;;2.90;1.98;;;13.90;99.90;;;;;;5019337;28;20124;-82
2022/06/17 03:23:13;;;;;;;5.93;2.17;;;13.90;99.90;;;;;;5018982;28;20026;-82
2022/06/17 03:25:47;;;;;;;3.97;2.50;;;13.80;99.90;;;;;;5000020;28;20034;-82
2022/06/17 03:28:19;;;;;;;3.20;2.33;;;13.80;99.90;;;;;;5003157;28;20172;-81
2022/06/17 03:30:57;;;;;;;3.67;2.67;;;13.80;99.90;;;;;;5018596;28;20025;-81
2022/06/17 03:33:25;;;;;;;3.28;2.42;;;13.80;99.90;;;;;;5000796;28;20072;-82
2022/06/17 03:35:57;;;;;;;2.92;2.63;;;13.70;99.90;;;;;;5000175;28;20037;-82
2022/06/17 03:38:31;;;;;;;3.03;2.30;;;13.70;99.90;;;;;;5018638;28;20081;-81
2022/06/17 03:41:09;;;;;;;3.47;2.47;;;13.70;99.90;;;;;;5037206;28;20039;-81
2022/06/17 03:43:43;;;;;;;4.55;2.78;;;13.70;99.90;;;;;;5026973;28;20033;-83
2022/06/17 03:46:12;;;;;;;4.18;3.13;;;13.70;99.90;;;;;;5043479;28;20493;-82
2022/06/17 03:48:46;;;;;;;3.40;2.65;;;13.60;99.90;;;;;;5026889;28;20080;-82
2022/06/17 03:51:24;;;;;;;4.75;2.63;;;13.60;99.90;;;;;;5036864;28;20037;-83
2022/06/17 03:53:52;;;;;;;3.10;2.70;;;13.70;99.90;;;;;;5030093;28;20025;-82
2022/06/17 03:56:36;;;;;;;5.97;2.78;;;13.70;99.90;;;;;;5040387;28;20065;-81
2022/06/17 03:59:07;;;;;;;2.40;2.20;;;13.70;99.90;;;;;;5024476;28;20036;-82
2022/06/17 04:01:44;;;;;;;3.03;2.33;;;13.70;99.90;;;;;;5023154;28;21144;-82
2022/06/17 04:04:24;;;;;;;3.58;2.58;;;13.70;99.90;;;;;;5033768;28;20480;-81
2022/06/17 04:06:54;;;;;;;3.15;2.63;;;13.70;99.90;;;;;;4994233;28;1087213;-82
2022/06/17 04:09:31;;;;;;;3.90;2.63;;;13.80;99.90;;;;;;5025213;28;20528;-82
2022/06/17 04:12:05;;;;;;;4.07;2.25;;;13.80;99.90;;;;;;5033453;28;20167;-82
2022/06/17 04:15:02;;;;;;;5.57;3.13;;;13.90;99.90;;;;;;5030987;28;20061;-82
2022/06/17 04:17:38;;;;;;;3.72;2.40;;;14.00;99.90;;;;;;5037563;28;20511;-83
2022/06/17 04:20:34;;;;;;;4.53;2.30;;;14.10;99.90;;;;;;5038804;28;20021;-82
2022/06/17 04:23:09;;;;;;;2.97;2.38;;;14.30;99.90;;;;;;5024314;28;20514;-82
2022/06/17 04:26:28;;;;;;;2.42;1.90;;;14.50;99.90;;;;;;5023139;28;20050;-81
2022/06/17 04:29:01;;;;;;;3.00;1.73;;;14.70;99.90;;;;;;5023101;28;20021;-82
2022/06/17 04:31:32;;;;;;;3.47;2.17;;;14.90;99.90;;;;;;5047054;28;20535;-83
2022/06/17 04:34:05;;;;;;;3.10;2.58;;;15.00;99.90;;;;;;5024370;28;20512;-82
2022/06/17 04:36:39;;;;;;;3.03;2.22;;;15.10;99.90;;;;;;5036239;28;20050;-82
2022/06/17 04:39:27;;;;;;;2.80;2.40;;;15.10;99.90;;;;;;5039572;28;20110;-81
2022/06/17 04:42:19;;;;;;;6.07;2.63;;;15.20;99.90;;;;;;5034624;28;20056;-81
2022/06/17 04:44:45;;;;;;;3.17;2.35;;;15.30;99.90;;;;;;5037730;28;20070;-81
2022/06/17 04:47:15;;;;;;;3.28;2.33;;;15.40;99.90;;;;;;5034625;28;20047;-82
2022/06/17 04:49:48;;;;;;;3.13;2.53;;;15.40;99.90;;;;;;5034351;28;20125;-81
2022/06/17 04:52:43;;;;;;;2.92;2.20;;;15.60;99.90;;;;;;5035650;28;20028;-81
2022/06/17 04:55:41;;;;;;;3.58;2.53;;;15.70;99.90;;;;;;5038757;28;20472;-81
2022/06/17 04:58:27;;;;;;;3.17;1.83;;;15.80;99.90;;;;;;5035562;28;20121;-80
2022/06/17 05:00:57;;;;;;;3.45;2.50;;;15.90;99.90;;;;;;5021994;28;20514;-81
2022/06/17 05:03:48;;;;;;;4.13;1.65;;;16.00;99.90;;;;;;5023790;28;20144;-82
2022/06/17 05:06:17;;;;;;;4.57;2.22;;;16.10;99.90;;;;;;5032299;28;20064;-81
2022/06/17 05:08:52;;;;;;;5.35;2.63;;;16.20;99.90;;;;;;5014163;28;20072;-80
2022/06/17 05:11:39;;;;;;;5.35;2.15;;;16.30;99.90;;;;;;5039309;28;20149;-80
2022/06/17 05:14:31;;;;;;;4.57;1.95;;;16.30;99.90;;;;;;5015752;28;20037;-81
2022/06/17 05:16:57;;;;;;;3.47;2.47;;;16.30;99.90;;;;;;5018068;28;20029;-81
2022/06/17 05:19:23;;;;;;;3.03;2.05;;;16.40;99.90;;;;;;5021415;28;20056;-81
2022/06/17 05:21:50;;;;;;;3.80;2.17;;;16.50;99.90;;;;;;5016092;28;20026;-81
2022/06/17 05:24:21;;;;;;;2.78;1.77;;;16.50;99.90;;;;;;5017199;28;20075;-80
2022/06/17 05:26:46;;;;;;;4.30;2.28;;;16.60;99.90;;;;;;5022015;28;20099;-81
2022/06/17 05:29:13;;;;;;;9.80;2.28;;;16.70;99.90;;;;;;5022801;28;20064;-81
2022/06/17 05:31:51;;;;;;;3.17;2.20;;;16.80;99.90;;;;;;5034702;28;20036;-81
2022/06/17 05:34:20;;;;;;;2.30;1.80;;;16.90;99.90;;;;;;5036983;28;20025;-82
2022/06/17 05:36:46;;;;;;;3.15;2.20;;;17.00;99.90;;;;;;5034004;28;20052;-81
2022/06/17 05:39:12;;;;;;;3.83;2.08;;;17.10;99.90;;;;;;5034993;28;20500;-81
2022/06/17 05:41:38;;;;;;;3.13;1.63;;;17.20;99.90;;;;;;5020728;28;20025;-81
2022/06/17 05:44:04;;;;;;;4.03;1.67;;;17.10;99.90;;;;;;5047785;28;20114;-81
2022/06/17 05:46:43;;;;;;;2.28;1.52;;;17.20;99.90;;;;;;5038383;28;20079;-81
2022/06/17 05:49:34;;;;;;;3.75;1.98;;;17.10;99.90;;;;;;5032253;28;20113;-80
2022/06/17 05:52:10;;;;;;;3.55;1.77;;;17.10;99.90;;;;;;5034777;28;20046;-81
2022/06/17 05:55:00;;;;;;;2.58;1.40;;;17.20;99.90;;;;;;5037370;28;20028;-81
2022/06/17 05:57:26;;;;;;;4.10;1.70;;;17.70;99.90;;;;;;5026870;28;20037;-80
2022/06/17 05:59:52;;;;;;;2.53;1.50;;;18.20;99.90;;;;;;5031360;28;20026;-81
2022/06/17 06:02:21;;;;;;;3.23;1.50;;;18.50;99.90;;;;;;5041659;28;20047;-81
2022/06/17 06:04:58;;;;;;;3.15;1.55;;;18.80;99.90;;;;;;5036981;28;20776;-81
2022/06/17 06:07:25;;;;;;;4.38;1.30;;;19.20;99.90;;;;;;5038314;28;20379;-81
2022/06/17 06:09:51;;;;;;;5.05;1.48;;;19.30;99.90;;;;;;5016859;28;20036;-81
2022/06/17 06:12:19;;;;;;;2.90;1.20;;;19.50;99.90;;;;;;5029883;28;20064;-80
2022/06/17 06:14:44;;;;;;;2.85;0.93;;;19.80;99.90;;;;;;5021099;28;20033;-80
2022/06/17 06:17:11;;;;;;;2.40;1.00;;;20.10;99.90;;;;;;5018787;28;20381;-82
2022/06/17 06:19:37;;;;;;;2.15;0.90;;;20.30;99.90;;;;;;5037338;28;22559;-81
2022/06/17 06:22:04;;;;;;;3.30;0.95;;;20.50;99.90;;;;;;5015193;28;20057;-80
2022/06/17 06:24:30;;;;;;;3.28;1.55;;;20.80;99.90;;;;;;5028531;28;20029;-81
2022/06/17 06:26:55;;;;;;;1.80;0.98;;;20.70;99.90;;;;;;5016313;28;20041;-80
2022/06/17 06:29:32;;;;;;;1.75;0.75;;;21.20;99.90;;;;;;5035702;28;20090;-80
2022/06/17 06:31:59;;;;;;;1.55;0.70;;;21.30;99.90;;;;;;5034192;28;20033;-81
2022/06/17 06:34:38;;;;;;;2.10;0.70;;;21.20;99.90;;;;;;5019216;28;20037;-79
2022/06/17 06:37:04;;;;;;;1.90;0.90;;;21.00;99.90;;;;;;5027439;28;20053;-80
2022/06/17 06:39:30;;;;;;;1.58;0.70;;;20.90;99.90;;;;;;5041317;28;20025;-79
2022/06/17 06:41:58;;;;;;;2.85;0.80;;;21.00;99.90;;;;;;5017689;28;20029;-83
2022/06/17 06:44:24;;;;;;;2.10;0.70;;;21.30;99.90;;;;;;5013079;28;20025;-80
2022/06/17 06:47:10;;;;;;;2.58;0.70;;;21.20;99.90;;;;;;5040566;28;20049;-81
2022/06/17 06:49:49;;;;;;;1.67;0.52;;;21.20;99.90;;;;;;5032483;28;20026;-80
2022/06/17 06:52:16;;;;;;;2.13;0.50;;;21.00;99.90;;;;;;5027290;28;20039;-80
2022/06/17 06:54:42;;;;;;;2.28;0.50;;;21.10;99.90;;;;;;5026888;28;20552;-79
2022/06/17 06:57:10;;;;;;;1.60;0.60;;;21.30;99.90;;;;;;5013337;28;20061;-82
2022/06/17 06:59:39;;;;;;;1.88;0.77;;;21.70;99.90;;;;;;5041281;28;20025;-82
2022/06/17 07:02:05;;;;;;;1.45;0.60;;;22.10;99.90;;;;;;5012772;28;20504;-81
2022/06/17 07:04:32;;;;;;;1.90;0.70;;;22.60;99.90;;;;;;5017334;28;20060;-80
2022/06/17 07:06:57;;;;;;;1.42;0.70;;;22.70;99.90;;;;;;5013032;28;20045;-81
2022/06/17 07:09:23;;;;;;;1.80;0.60;;;23.20;99.90;;;;;;5013925;28;20819;-80
2022/06/17 07:11:49;;;;;;;1.58;0.50;;;23.50;99.90;;;;;;5032311;28;20044;-81
2022/06/17 07:14:14;;;;;;;2.08;0.43;;;23.60;99.90;;;;;;5026586;28;20029;-81
2022/06/17 07:16:40;;;;;;;1.45;0.50;;;23.40;99.90;;;;;;5028414;28;20065;-81
2022/06/17 07:19:07;;;;;;;1.38;0.50;;;22.80;99.90;;;;;;5013668;28;20492;-81
2022/06/17 07:21:33;;;;;;;1.77;0.50;;;22.90;99.90;;;;;;5030764;28;20021;-81
2022/06/17 07:23:59;;;;;;;2.42;0.40;;;22.90;99.90;;;;;;5010587;28;20151;-81
2022/06/17 07:26:26;;;;;;;3.30;0.50;;;22.80;99.90;;;;;;5011449;28;20037;-81
2022/06/17 07:28:54;;;;;;;1.55;0.50;;;22.70;99.90;;;;;;5034696;28;20030;-80
2022/06/17 07:31:21;;;;;;;1.33;0.50;;;23.10;99.90;;;;;;5014502;28;20071;-83
2022/06/17 07:33:47;;;;;;;2.22;0.50;;;23.50;99.90;;;;;;5030306;28;20845;-81
2022/06/17 07:39:53;;;;;;;1.55;0.50;;;23.40;99.90;;;;;;5033057;28;20147;-80
2022/06/17 07:42:04;;;;;;;1.45;0.40;;;23.70;99.90;;;;;;5013774;28;20033;-80
2022/06/17 07:44:30;;;;;;;1.15;0.30;;;24.10;99.90;;;;;;4977353;28;20477;-82
2022/06/17 07:46:56;;;;;;;1.10;0.38;;;24.30;99.90;;;;;;5013397;28;20083;-81
2022/06/17 07:49:21;;;;;;;1.52;0.50;;;24.10;99.90;;;;;;5010513;28;20113;-81
2022/06/17 07:51:47;;;;;;;1.75;0.38;;;23.90;99.90;;;;;;5009579;28;20525;-81
2022/06/17 07:54:14;;;;;;;2.67;0.45;;;24.00;99.90;;;;;;4992686;28;20482;-80
2022/06/17 07:56:40;;;;;;;2.67;0.40;;;23.70;99.90;;;;;;5013316;28;20029;-82
2022/06/17 07:59:05;;;;;;;2.85;0.47;;;24.20;99.90;;;;;;4991896;28;20048;-82
2022/06/17 08:01:31;;;;;;;2.10;0.30;;;24.30;99.90;;;;;;4994273;28;20061;-80
2022/06/17 08:03:57;;;;;;;1.00;0.30;;;24.90;99.90;;;;;;4976987;28;20133;-83
2022/06/17 08:06:22;;;;;;;1.05;0.30;;;25.30;99.90;;;;;;5012510;28;20072;-86
2022/06/17 08:08:48;;;;;;;1.38;0.30;;;25.20;99.90;;;;;;5001596;28;20100;-88
2022/06/17 08:11:14;;;;;;;0.95;0.30;;;25.00;99.90;;;;;;5010025;28;20041;-83
2022/06/17 08:13:40;;;;;;;1.13;0.30;;;25.40;99.90;;;;;;5009879;28;20750;-83
2022/06/17 08:16:08;;;;;;;0.75;0.30;;;25.20;99.90;;;;;;5011526;28;20021;-83
2022/06/17 08:18:36;;;;;;;0.88;0.25;;;25.20;99.90;;;;;;5034494;28;20438;-82
2022/06/17 08:21:03;;;;;;;1.00;0.30;;;25.60;99.90;;;;;;5031202;28;20119;-87
2022/06/17 08:23:29;;;;;;;1.63;0.38;;;25.80;99.90;;;;;;5029847;28;20041;-85
2022/06/17 08:25:57;;;;;;;2.97;0.35;;;25.40;99.90;;;;;;5037879;28;20024;-85
2022/06/17 08:28:24;;;;;;;1.38;0.40;;;25.40;99.90;;;;;;5034166;28;20038;-86
2022/06/17 08:30:53;;;;;;;1.20;0.30;;;25.50;99.90;;;;;;5036778;28;20409;-86
2022/06/17 08:33:27;;;;;;;3.45;0.30;;;26.20;99.90;;;;;;5019346;28;20660;-85
2022/06/17 08:35:53;;;;;;;2.45;0.40;;;26.20;99.90;;;;;;5039941;28;20072;-87
2022/06/17 08:38:23;;;;;;;2.42;0.50;;;26.40;99.90;;;;;;5023147;28;20037;-82
2022/06/17 08:41:10;;;;;;;1.63;0.43;;;26.10;99.90;;;;;;5024455;28;20038;-85
2022/06/17 08:43:57;;;;;;;1.15;0.30;;;25.50;99.90;;;;;;5034799;28;20032;-86
2022/06/17 08:46:46;;;;;;;1.70;0.30;;;26.00;99.90;;;;;;5048335;28;20036;-89
2022/06/17 08:49:26;;;;;;;2.17;0.40;;;26.60;99.90;;;;;;5022246;28;20069;-90
2022/06/17 08:52:01;;;;;;;3.53;0.50;;;26.40;99.90;;;;;;5029070;28;20030;-87
2022/06/17 08:54:44;;;;;;;1.60;0.25;;;26.30;99.90;;;;;;5016460;28;20060;-87
2022/06/17 08:57:13;;;;;;;1.85;0.30;;;26.90;99.90;;;;;;5037077;28;20125;-87
2022/06/17 09:00:05;;;;;;;1.63;0.30;;;26.80;99.90;;;;;;5022201;28;20037;-88
2022/06/17 09:02:49;;;;;;;1.92;0.40;;;26.80;99.90;;;;;;5034955;28;20546;-85
2022/06/17 09:05:20;;;;;;;1.38;0.30;;;26.50;99.90;;;;;;5013830;28;20043;-85
2022/06/17 09:08:14;;;;;;;1.40;0.40;;;27.10;99.90;;;;;;5023394;28;20580;-84
2022/06/17 09:11:19;;;;;;;1.77;0.30;;;27.20;99.90;;;;;;5029669;28;20025;-85
2022/06/17 09:14:03;;;;;;;1.50;0.40;;;27.20;99.90;;;;;;5026109;28;20042;-86
2022/06/17 09:16:45;;;;;;;3.47;0.40;;;26.60;99.90;;;;;;5029692;28;20029;-83
2022/06/17 09:19:15;;;;;;;0.98;0.30;;;26.90;99.90;;;;;;5032302;28;20029;-86
2022/06/17 09:21:47;;;;;;;0.90;0.20;;;27.50;99.90;;;;;;5038493;28;20037;-87
2022/06/17 09:24:22;;;;;;;2.03;0.30;;;27.70;99.90;;;;;;5032059;28;20029;-87
2022/06/17 09:26:54;;;;;;;1.02;0.32;;;27.30;99.90;;;;;;5035795;28;20041;-89
2022/06/17 09:29:37;;;;;;;0.93;0.30;;;27.10;99.90;;;;;;5044526;28;20041;-85
2022/06/17 09:32:16;;;;;;;0.82;0.30;;;27.90;99.90;;;;;;5031274;28;20131;-88
2022/06/17 09:35:19;;;;;;;0.88;0.32;;;27.70;99.90;;;;;;5026299;28;20097;-89
2022/06/17 09:38:02;;;;;;;1.10;0.40;;;27.10;99.90;;;;;;5005925;28;20476;-85
2022/06/17 09:40:59;;;;;;;1.52;0.40;;;27.40;99.90;;;;;;5036965;28;20445;-84
2022/06/17 09:43:31;;;;;;;1.35;0.30;;;27.20;99.90;;;;;;5018624;28;20107;-86
2022/06/17 09:46:13;;;;;;;1.05;0.20;;;27.90;99.90;;;;;;5020456;28;20029;-85
2022/06/17 09:49:00;;;;;;;1.88;0.38;;;28.00;99.90;;;;;;5030065;28;20041;-87
2022/06/17 09:51:42;;;;;;;0.88;0.30;;;27.40;99.90;;;;;;5030477;28;20144;-85
2022/06/17 09:54:19;;;;;;;3.17;0.40;;;27.30;99.90;;;;;;5029438;28;20069;-87
2022/06/17 09:57:14;;;;;;;1.40;0.40;;;27.80;99.90;;;;;;5033989;28;20052;-88
2022/06/17 10:00:08;;;;;;;2.25;0.32;;;28.10;99.90;;;;;;5022547;28;20099;-89
2022/06/17 10:02:48;;;;;;;0.90;0.40;;;28.80;99.90;;;;;;5025497;28;20032;-84
2022/06/17 10:05:23;;;;;;;1.98;0.30;;;28.30;99.90;;;;;;5028005;28;20044;-87
2022/06/17 10:08:07;;;;;;;2.85;0.50;;;28.60;99.90;;;;;;5021391;28;20408;-88
2022/06/17 10:10:53;;;;;;;1.70;0.30;;;28.10;99.90;;;;;;5025418;28;20292;-87
2022/06/17 10:13:57;;;;;;;0.88;0.30;;;28.10;99.90;;;;;;5029339;28;20041;-88
2022/06/17 10:20:25;;;;;;;1.25;0.30;;;28.60;99.90;;;;;;5002747;28;20036;-87
2022/06/17 10:23:09;;;;;;;1.73;0.30;;;28.30;99.90;;;;;;5055879;28;20511;-89
2022/06/17 10:26:08;;;;;;;1.30;0.30;;;28.40;99.90;;;;;;5042144;28;20086;-88
2022/06/17 10:29:00;;;;;;;0.50;0.20;;;28.30;99.90;;;;;;5055281;28;20041;-87
2022/06/17 10:31:39;;;;;;;1.92;0.20;;;28.50;99.90;;;;;;5029954;28;20153;-88
2022/06/17 10:34:31;;;;;;;0.90;0.20;;;28.00;99.90;;;;;;5043478;28;20468;-86
2022/06/17 10:37:00;;;;;;;0.65;0.20;;;29.00;99.90;;;;;;5011593;28;20049;-89
2022/06/17 10:39:28;;;;;;;0.70;0.20;;;28.90;99.90;;;;;;5038384;28;20121;-90
2022/06/17 10:41:56;;;;;;;1.77;0.30;;;29.30;99.90;;;;;;5018165;28;20079;-88
2022/06/17 10:44:24;;;;;;;0.98;0.30;;;29.10;99.90;;;;;;5034052;28;20417;-85
2022/06/17 10:47:11;;;;;;;1.50;0.28;;;28.60;99.90;;;;;;5027687;28;20060;-84
2022/06/17 10:49:42;;;;;;;1.17;0.20;;;28.30;99.90;;;;;;5037418;28;20469;-85
2022/06/17 10:52:20;;;;;;;0.60;0.20;;;28.50;99.90;;;;;;5026947;28;20607;-86
2022/06/17 10:54:49;;;;;;;1.08;0.20;;;29.00;99.90;;;;;;5026296;28;20033;-89
2022/06/17 10:57:26;;;;;;;0.80;0.20;;;29.90;99.90;;;;;;5049714;28;20040;-89
2022/06/17 10:59:52;;;;;;;1.25;0.30;;;29.50;99.90;;;;;;5017596;28;20048;-89
2022/06/17 11:02:21;;;;;;;1.00;0.20;;;29.40;99.90;;;;;;5034673;28;20263;-89
2022/06/17 11:04:54;;;;;;;0.90;0.20;;;29.50;99.90;;;;;;5037118;28;20037;-88
2022/06/17 11:07:44;;;;;;;0.77;0.20;;;29.90;99.90;;;;;;5030430;28;20175;-86
2022/06/17 11:10:13;;;;;;;1.27;0.30;;;30.00;99.90;;;;;;5020770;28;20052;-86
2022/06/17 11:12:42;;;;;;;1.50;0.30;;;29.20;99.90;;;;;;5033051;28;20035;-87
2022/06/17 11:15:29;;;;;;;1.42;0.30;;;28.80;99.90;;;;;;5029712;28;20044;-89
2022/06/17 11:17:59;;;;;;;0.70;0.20;;;29.50;99.90;;;;;;5027819;28;20044;-90
2022/06/17 11:20:31;;;;;;;3.25;0.30;;;30.10;99.90;;;;;;5034411;28;20124;-89
2022/06/17 11:23:07;;;;;;;1.00;0.30;;;30.60;99.90;;;;;;5032069;28;20458;-87
2022/06/17 11:25:35;;;;;;;2.15;0.30;;;29.30;99.90;;;;;;5015484;28;20032;-85
2022/06/17 11:28:34;;;;;;;1.20;0.20;;;28.70;99.90;;;;;;5037374;28;20049;-85
2022/06/17 11:31:06;;;;;;;2.70;0.30;;;29.10;99.90;;;;;;5029086;28;20531;-86
2022/06/17 11:33:54;;;;;;;1.05;0.22;;;29.30;99.90;;;;;;5022500;28;20045;-90
2022/06/17 11:36:32;;;;;;;0.63;0.20;;;28.90;99.90;;;;;;5031300;28;20046;-89
2022/06/17 11:39:33;;;;;;;1.10;0.20;;;29.30;99.90;;;;;;5035040;28;20037;-86
2022/06/17 11:42:24;;;;;;;1.98;0.60;;;29.80;99.90;;;;;;5033441;28;20477;-85
2022/06/17 11:44:59;;;;;;;3.47;0.20;;;29.80;99.90;;;;;;5027544;28;20116;-85
2022/06/17 11:47:27;;;;;;;1.33;0.10;;;29.50;99.90;;;;;;5032163;28;20036;-85
2022/06/17 11:49:57;;;;;;;0.93;0.20;;;29.70;99.90;;;;;;5032210;28;20074;-87
2022/06/17 11:52:31;;;;;;;1.27;0.30;;;29.60;99.90;;;;;;5034059;28;20040;-86
2022/06/17 11:54:57;;;;;;;0.47;0.20;;;29.80;99.90;;;;;;5031712;28;20040;-85
2022/06/17 11:57:27;;;;;;;0.60;0.10;;;29.70;99.90;;;;;;5019204;28;20468;-84
2022/06/17 11:59:56;;;;;;;0.73;0.20;;;30.70;99.90;;;;;;5029185;28;20029;-84
2022/06/17 12:02:22;;;;;;;2.05;0.20;;;29.50;99.90;;;;;;5031135;28;20029;-84
2022/06/17 12:05:10;;;;;;;1.05;0.20;;;29.10;99.90;;;;;;5028891;28;20099;-85
2022/06/17 12:07:51;;;;;;;1.10;0.10;;;29.40;99.90;;;;;;5031711;28;20501;-83
2022/06/17 12:10:38;;;;;;;0.57;0.20;;;29.50;99.90;;;;;;5050391;28;20129;-85
2022/06/17 12:13:11;;;;;;;0.73;0.20;;;29.80;99.90;;;;;;5015091;28;20039;-86
2022/06/17 12:16:03;;;;;;;0.82;0.20;;;29.70;99.90;;;;;;5038277;28;20087;-85
2022/06/17 12:18:37;;;;;;;0.80;0.20;;;29.60;99.90;;;;;;5017985;28;20108;-89
2022/06/17 12:21:16;;;;;;;1.75;0.20;;;30.60;99.90;;;;;;5023611;28;20037;-89
2022/06/17 12:23:45;;;;;;;0.60;0.20;;;30.60;99.90;;;;;;5023268;28;20021;-91
2022/06/17 12:26:21;;;;;;;0.70;0.20;;;30.40;99.40;;;;;;5032374;28;20033;-88
2022/06/17 12:29:11;;;;;;;0.40;0.20;;;29.70;99.90;;;;;;5041052;28;20029;-89
2022/06/17 12:31:54;;;;;;;0.68;0.10;;;30.00;99.90;;;;;;5035630;28;20048;-88
2022/06/17 12:34:37;;;;;;;0.60;0.10;;;30.10;99.90;;;;;;5038452;28;20120;-87
2022/06/17 12:37:29;;;;;;;0.82;0.10;;;30.20;99.90;;;;;;5025625;28;20037;-87
2022/06/17 12:40:06;;;;;;;1.08;0.20;;;30.20;99.90;;;;;;5031261;28;20048;-86
2022/06/17 12:42:59;;;;;;;2.22;0.20;;;31.10;99.90;;;;;;5038935;28;20021;-86
2022/06/17 12:45:45;;;;;;;0.50;0.20;;;30.70;99.90;;;;;;5038183;28;20430;-88
2022/06/17 12:48:15;;;;;;;1.35;0.20;;;31.00;99.90;;;;;;5038994;28;20560;-89
2022/06/17 12:54:18;;;;;;;2.30;0.30;;;29.80;99.10;;;;;;5037361;28;20033;-88
2022/06/17 12:57:21;;;;;;;1.95;0.20;;;30.60;99.60;;;;;;5052134;28;20029;-88
2022/06/17 12:59:56;;;;;;;0.63;0.20;;;30.60;99.90;;;;;;5018358;28;20064;-88
2022/06/17 13:02:34;;;;;;;2.00;0.30;;;30.10;99.90;;;;;;5032415;28;20124;-89
2022/06/17 13:05:17;;;;;;;0.98;0.28;;;30.20;99.90;;;;;;5046886;28;20033;-88
2022/06/17 13:07:49;;;;;;;0.68;0.20;;;30.50;99.90;;;;;;5039140;28;20031;-89
2022/06/17 13:10:39;;;;;;;0.50;0.10;;;30.50;99.10;;;;;;5029754;28;20091;-87
2022/06/17 13:13:39;;;;;;;0.80;0.10;;;30.80;99.90;;;;;;5030989;28;20037;-88
2022/06/17 13:16:15;;;;;;;0.68;0.10;;;31.20;99.90;;;;;;5029273;28;20022;-88
2022/06/17 13:18:57;;;;;;;1.10;0.17;;;31.10;99.90;;;;;;5022491;28;20527;-85
2022/06/17 13:21:34;;;;;;;0.30;0.10;;;31.30;99.90;;;;;;5038191;28;20029;-87
2022/06/17 13:24:09;;;;;;;0.65;0.20;;;31.10;99.90;;;;;;5030160;28;20036;-88
2022/06/17 13:26:41;;;;;;;1.10;0.20;;;30.70;98.60;;;;;;5017489;28;20386;-87
2022/06/17 13:29:43;;;;;;;1.70;0.20;;;30.20;99.50;;;;;;5028834;28;20319;-88
2022/06/17 13:32:23;;;;;;;1.52;0.30;;;30.30;99.40;;;;;;5019952;28;20086;-87
2022/06/17 13:34:57;;;;;;;1.98;0.20;;;30.20;99.50;;;;;;5021367;28;20162;-89
2022/06/17 13:37:37;;;;;;;0.98;0.20;;;30.20;99.70;;;;;;5046034;28;20053;-86
2022/06/17 13:40:20;;;;;;;0.80;0.20;;;30.70;99.90;;;;;;5039412;28;20033;-89